sensor_id;sensor_type;location;lat;lon;timestamp;pressure;altitude;pressure_sealevel;temperature;humidity
13434;BME280;6789;47.678;9.158;2023-02-17T00:03:33;97810.88;;;5.65;100.00
13434;BME280;6789;47.678;9.158;2023-02-17T00:08:25;97808.75;;;5.69;100.00
13434;BME280;6789;47.678;9.158;2023-02-17T00:13:17;97817.03;;;5.72;100.00
13434;BME280;6789;47.678;9.158;2023-02-17T00:18:09;97811.47;;;5.75;100.00
13434;BME280;6789;47.678;9.158;2023-02-17T00:23:00;97812.97;;;5.78;100.00
13434;BME280;6789;47.678;9.158;2023-02-17T00:27:52;97819.00;;;5.78;100.00
13434;BME280;6789;47.678;9.158;2023-02-17T00:32:44;97818.47;;;5.75;100.00
13434;BME280;6789;47.678;9.158;2023-02-17T00:37:35;97812.63;;;5.73;100.00
13434;BME280;6789;47.678;9.158;2023-02-17T00:42:27;97822.22;;;5.72;100.00
13434;BME280;6789;47.678;9.158;2023-02-17T00:47:19;97824.00;;;5.72;100.00
13434;BME280;6789;47.678;9.158;2023-02-17T00:52:10;97821.25;;;5.81;100.00
13434;BME280;6789;47.678;9.158;2023-02-17T00:57:02;97824.97;;;5.87;100.00
13434;BME280;6789;47.678;9.158;2023-02-17T01:01:54;97827.09;;;5.91;100.00
13434;BME280;6789;47.678;9.158;2023-02-17T01:06:46;97823.16;;;5.95;100.00
13434;BME280;6789;47.678;9.158;2023-02-17T01:11:39;97821.16;;;6.05;100.00
13434;BME280;6789;47.678;9.158;2023-02-17T01:16:36;97814.63;;;6.09;100.00
13434;BME280;6789;47.678;9.158;2023-02-17T01:21:30;97815.44;;;6.10;100.00
13434;BME280;6789;47.678;9.158;2023-02-17T01:26:26;97814.00;;;6.07;100.00
13434;BME280;6789;47.678;9.158;2023-02-17T01:31:20;97812.34;;;6.14;100.00
13434;BME280;6789;47.678;9.158;2023-02-17T01:36:16;97810.03;;;6.19;100.00
13434;BME280;6789;47.678;9.158;2023-02-17T01:41:09;97822.28;;;6.41;98.53
13434;BME280;6789;47.678;9.158;2023-02-17T01:46:06;97822.19;;;6.79;91.05
13434;BME280;6789;47.678;9.158;2023-02-17T01:51:02;97820.84;;;7.06;87.47
13434;BME280;6789;47.678;9.158;2023-02-17T01:55:56;97810.41;;;7.57;86.64
13434;BME280;6789;47.678;9.158;2023-02-17T02:00:51;97808.25;;;7.46;85.87
13434;BME280;6789;47.678;9.158;2023-02-17T02:05:44;97798.25;;;7.35;87.36
13434;BME280;6789;47.678;9.158;2023-02-17T02:10:37;97792.75;;;7.30;87.76
13434;BME280;6789;47.678;9.158;2023-02-17T02:15:45;97796.16;;;7.30;87.91
13434;BME280;6789;47.678;9.158;2023-02-17T02:21:24;97790.16;;;7.30;88.53
13434;BME280;6789;47.678;9.158;2023-02-17T02:41:55;97784.66;;;8.11;74.62
13434;BME280;6789;47.678;9.158;2023-02-17T02:47:01;97780.53;;;8.17;74.29
13434;BME280;6789;47.678;9.158;2023-02-17T02:52:12;97780.44;;;8.25;72.36
13434;BME280;6789;47.678;9.158;2023-02-17T02:57:38;97775.69;;;8.35;71.66
13434;BME280;6789;47.678;9.158;2023-02-17T03:02:56;97779.34;;;8.54;69.60
13434;BME280;6789;47.678;9.158;2023-02-17T03:07:55;97778.63;;;8.81;67.26
13434;BME280;6789;47.678;9.158;2023-02-17T03:12:49;97769.63;;;9.11;65.98
13434;BME280;6789;47.678;9.158;2023-02-17T03:17:41;97770.19;;;9.34;64.99
13434;BME280;6789;47.678;9.158;2023-02-17T03:22:37;97769.28;;;9.48;64.06
13434;BME280;6789;47.678;9.158;2023-02-17T03:27:31;97788.50;;;9.61;63.04
13434;BME280;6789;47.678;9.158;2023-02-17T03:32:23;97781.25;;;9.63;62.20
13434;BME280;6789;47.678;9.158;2023-02-17T03:37:15;97781.31;;;9.70;61.79
13434;BME280;6789;47.678;9.158;2023-02-17T03:42:07;97786.06;;;9.60;62.35
13434;BME280;6789;47.678;9.158;2023-02-17T03:46:59;97778.50;;;9.71;61.62
13434;BME280;6789;47.678;9.158;2023-02-17T03:51:50;97777.75;;;9.84;60.80
13434;BME280;6789;47.678;9.158;2023-02-17T03:56:42;97780.56;;;9.82;61.25
13434;BME280;6789;47.678;9.158;2023-02-17T04:01:34;97775.25;;;9.69;62.04
13434;BME280;6789;47.678;9.158;2023-02-17T04:06:26;97774.22;;;9.64;62.76
13434;BME280;6789;47.678;9.158;2023-02-17T04:11:17;97788.47;;;9.55;63.93
13434;BME280;6789;47.678;9.158;2023-02-17T04:16:10;97796.03;;;9.43;64.29
13434;BME280;6789;47.678;9.158;2023-02-17T04:21:04;97785.53;;;9.37;63.95
13434;BME280;6789;47.678;9.158;2023-02-17T04:25:56;97787.59;;;9.48;62.70
13434;BME280;6789;47.678;9.158;2023-02-17T04:30:49;97773.38;;;9.57;61.71
13434;BME280;6789;47.678;9.158;2023-02-17T04:35:41;97786.50;;;9.63;61.68
13434;BME280;6789;47.678;9.158;2023-02-17T04:40:33;97783.66;;;9.58;62.27
13434;BME280;6789;47.678;9.158;2023-02-17T04:45:25;97786.50;;;9.63;61.88
13434;BME280;6789;47.678;9.158;2023-02-17T04:50:17;97776.91;;;9.77;61.14
13434;BME280;6789;47.678;9.158;2023-02-17T04:55:11;97778.09;;;9.74;60.97
13434;BME280;6789;47.678;9.158;2023-02-17T05:00:05;97782.53;;;9.74;61.04
13434;BME280;6789;47.678;9.158;2023-02-17T05:05:11;97766.84;;;9.80;61.16
13434;BME280;6789;47.678;9.158;2023-02-17T05:10:07;97758.81;;;9.82;61.36
13434;BME280;6789;47.678;9.158;2023-02-17T05:15:01;97762.03;;;9.84;62.23
13434;BME280;6789;47.678;9.158;2023-02-17T05:19:54;97762.38;;;10.08;61.62
13434;BME280;6789;47.678;9.158;2023-02-17T05:24:50;97765.00;;;10.08;61.43
13434;BME280;6789;47.678;9.158;2023-02-17T05:29:56;97774.47;;;9.75;63.24
13434;BME280;6789;47.678;9.158;2023-02-17T05:34:56;97763.78;;;9.77;64.13
13434;BME280;6789;47.678;9.158;2023-02-17T05:39:48;97777.66;;;9.71;65.20
13434;BME280;6789;47.678;9.158;2023-02-17T05:44:42;97762.81;;;9.78;65.40
13434;BME280;6789;47.678;9.158;2023-02-17T05:49:48;97775.22;;;9.63;65.62
13434;BME280;6789;47.678;9.158;2023-02-17T05:54:40;97770.91;;;9.49;66.31
13434;BME280;6789;47.678;9.158;2023-02-17T05:59:40;97770.25;;;9.74;65.40
13434;BME280;6789;47.678;9.158;2023-02-17T06:04:45;97772.69;;;9.76;64.90
13434;BME280;6789;47.678;9.158;2023-02-17T06:09:51;97767.19;;;9.71;65.28
13434;BME280;6789;47.678;9.158;2023-02-17T06:14:53;97770.13;;;9.55;64.72
13434;BME280;6789;47.678;9.158;2023-02-17T06:19:46;97779.59;;;9.56;65.08
13434;BME280;6789;47.678;9.158;2023-02-17T06:24:53;97781.75;;;9.46;66.12
13434;BME280;6789;47.678;9.158;2023-02-17T06:29:58;97781.56;;;9.47;66.98
13434;BME280;6789;47.678;9.158;2023-02-17T06:35:05;97776.56;;;9.52;66.25
13434;BME280;6789;47.678;9.158;2023-02-17T06:40:12;97788.47;;;9.55;66.57
13434;BME280;6789;47.678;9.158;2023-02-17T06:45:17;97794.50;;;9.55;67.53
13434;BME280;6789;47.678;9.158;2023-02-17T06:50:23;97792.22;;;9.73;67.01
13434;BME280;6789;47.678;9.158;2023-02-17T06:55:29;97804.81;;;9.63;65.98
13434;BME280;6789;47.678;9.158;2023-02-17T07:00:22;97815.09;;;9.65;65.75
13434;BME280;6789;47.678;9.158;2023-02-17T07:05:28;97814.81;;;9.81;64.54
13434;BME280;6789;47.678;9.158;2023-02-17T07:10:20;97816.03;;;9.85;63.65
13434;BME280;6789;47.678;9.158;2023-02-17T07:15:27;97811.28;;;9.94;63.22
13434;BME280;6789;47.678;9.158;2023-02-17T07:20:32;97822.44;;;10.03;63.02
13434;BME280;6789;47.678;9.158;2023-02-17T07:25:29;97820.47;;;10.11;63.25
13434;BME280;6789;47.678;9.158;2023-02-17T07:30:39;97821.88;;;10.14;62.67
13434;BME280;6789;47.678;9.158;2023-02-17T07:35:46;97811.94;;;10.43;60.81
13434;BME280;6789;47.678;9.158;2023-02-17T07:40:52;97820.78;;;10.42;60.93
13434;BME280;6789;47.678;9.158;2023-02-17T07:45:58;97820.44;;;10.58;60.24
13434;BME280;6789;47.678;9.158;2023-02-17T07:51:10;97836.03;;;10.85;59.01
13434;BME280;6789;47.678;9.158;2023-02-17T07:56:19;97837.91;;;11.04;58.47
13434;BME280;6789;47.678;9.158;2023-02-17T08:01:26;97850.59;;;11.01;57.94
13434;BME280;6789;47.678;9.158;2023-02-17T08:06:31;97849.25;;;11.24;57.17
13434;BME280;6789;47.678;9.158;2023-02-17T08:11:39;97857.72;;;11.33;57.63
13434;BME280;6789;47.678;9.158;2023-02-17T08:17:05;97858.56;;;11.33;56.58
13434;BME280;6789;47.678;9.158;2023-02-17T08:22:12;97868.44;;;11.50;56.49
13434;BME280;6789;47.678;9.158;2023-02-17T08:27:19;97870.50;;;11.55;56.61
13434;BME280;6789;47.678;9.158;2023-02-17T08:32:24;97871.31;;;11.75;55.56
13434;BME280;6789;47.678;9.158;2023-02-17T08:37:32;97881.00;;;11.81;55.73
13434;BME280;6789;47.678;9.158;2023-02-17T08:42:37;97894.16;;;11.87;55.86
13434;BME280;6789;47.678;9.158;2023-02-17T08:47:44;97873.13;;;11.87;56.03
13434;BME280;6789;47.678;9.158;2023-02-17T08:52:43;97885.88;;;11.97;55.41
13434;BME280;6789;47.678;9.158;2023-02-17T08:57:49;97881.78;;;12.07;55.24
13434;BME280;6789;47.678;9.158;2023-02-17T09:02:55;97881.56;;;12.21;54.30
13434;BME280;6789;47.678;9.158;2023-02-17T09:08:01;97901.72;;;12.40;53.71
13434;BME280;6789;47.678;9.158;2023-02-17T09:13:08;97895.66;;;12.46;54.45
13434;BME280;6789;47.678;9.158;2023-02-17T09:18:08;97897.25;;;12.47;55.57
13434;BME280;6789;47.678;9.158;2023-02-17T09:23:15;97907.66;;;12.23;55.67
13434;BME280;6789;47.678;9.158;2023-02-17T09:28:22;97917.56;;;12.27;56.34
13434;BME280;6789;47.678;9.158;2023-02-17T09:33:27;97914.28;;;12.51;57.00
13434;BME280;6789;47.678;9.158;2023-02-17T09:38:20;97895.16;;;12.69;57.10
13434;BME280;6789;47.678;9.158;2023-02-17T09:43:29;97905.41;;;12.96;56.77
13434;BME280;6789;47.678;9.158;2023-02-17T09:48:38;97911.88;;;12.93;55.95
13434;BME280;6789;47.678;9.158;2023-02-17T09:54:16;97924.22;;;12.99;55.64
13434;BME280;6789;47.678;9.158;2023-02-17T10:00:07;97918.81;;;13.25;55.09
13434;BME280;6789;47.678;9.158;2023-02-17T10:05:19;97915.59;;;13.23;55.42
13434;BME280;6789;47.678;9.158;2023-02-17T10:10:38;97915.53;;;13.36;55.69
13434;BME280;6789;47.678;9.158;2023-02-17T10:15:51;97919.19;;;13.35;55.88
13434;BME280;6789;47.678;9.158;2023-02-17T10:21:04;97920.16;;;13.03;57.60
13434;BME280;6789;47.678;9.158;2023-02-17T10:26:25;97916.53;;;13.04;56.83
13434;BME280;6789;47.678;9.158;2023-02-17T10:31:59;97916.38;;;12.86;55.92
13434;BME280;6789;47.678;9.158;2023-02-17T10:42:55;97917.75;;;13.02;55.42
13434;BME280;6789;47.678;9.158;2023-02-17T10:53:39;97898.56;;;13.56;55.31
13434;BME280;6789;47.678;9.158;2023-02-17T10:59:03;97897.47;;;13.64;55.02
13434;BME280;6789;47.678;9.158;2023-02-17T11:04:11;97901.03;;;13.76;55.04
13434;BME280;6789;47.678;9.158;2023-02-17T11:09:24;97897.31;;;13.59;56.13
13434;BME280;6789;47.678;9.158;2023-02-17T11:14:37;97883.69;;;13.62;56.54
13434;BME280;6789;47.678;9.158;2023-02-17T11:25:34;97878.47;;;14.46;55.68
13434;BME280;6789;47.678;9.158;2023-02-17T11:30:53;97875.91;;;14.76;54.41
13434;BME280;6789;47.678;9.158;2023-02-17T11:36:33;97860.28;;;14.56;55.33
13434;BME280;6789;47.678;9.158;2023-02-17T11:41:54;97856.81;;;14.74;55.03
13434;BME280;6789;47.678;9.158;2023-02-17T11:47:37;97853.75;;;14.59;59.00
13434;BME280;6789;47.678;9.158;2023-02-17T12:15:44;97849.88;;;13.59;63.39
13434;BME280;6789;47.678;9.158;2023-02-17T12:21:29;97863.47;;;13.56;62.86
13434;BME280;6789;47.678;9.158;2023-02-17T12:27:06;97847.75;;;13.43;63.08
13434;BME280;6789;47.678;9.158;2023-02-17T12:33:14;97844.09;;;13.44;62.48
13434;BME280;6789;47.678;9.158;2023-02-17T12:38:48;97826.13;;;13.35;62.89
13434;BME280;6789;47.678;9.158;2023-02-17T12:44:04;97827.28;;;13.45;62.96
13434;BME280;6789;47.678;9.158;2023-02-17T12:49:37;97809.13;;;13.55;63.14
13434;BME280;6789;47.678;9.158;2023-02-17T12:55:13;97815.88;;;13.75;61.98
13434;BME280;6789;47.678;9.158;2023-02-17T13:00:34;97812.44;;;13.93;61.71
13434;BME280;6789;47.678;9.158;2023-02-17T13:05:59;97811.78;;;13.97;61.31
13434;BME280;6789;47.678;9.158;2023-02-17T13:11:25;97812.06;;;13.89;61.31
13434;BME280;6789;47.678;9.158;2023-02-17T13:16:23;97820.78;;;13.90;61.25
13434;BME280;6789;47.678;9.158;2023-02-17T13:21:33;97815.66;;;13.95;61.13
13434;BME280;6789;47.678;9.158;2023-02-17T13:26:52;97808.34;;;13.97;60.80
13434;BME280;6789;47.678;9.158;2023-02-17T13:32:01;97813.63;;;13.97;61.71
13434;BME280;6789;47.678;9.158;2023-02-17T13:37:44;97805.13;;;13.95;61.63
13434;BME280;6789;47.678;9.158;2023-02-17T13:42:53;97807.47;;;14.03;61.54
13434;BME280;6789;47.678;9.158;2023-02-17T13:48:13;97803.22;;;14.02;61.58
13434;BME280;6789;47.678;9.158;2023-02-17T13:53:38;97803.13;;;14.08;61.44
13434;BME280;6789;47.678;9.158;2023-02-17T13:58:44;97799.44;;;13.98;61.60
13434;BME280;6789;47.678;9.158;2023-02-17T14:04:22;97803.44;;;14.00;61.75
13434;BME280;6789;47.678;9.158;2023-02-17T14:09:53;97802.94;;;13.92;62.39
13434;BME280;6789;47.678;9.158;2023-02-17T14:14:59;97799.72;;;14.08;61.92
13434;BME280;6789;47.678;9.158;2023-02-17T14:20:22;97798.56;;;14.22;61.78
13434;BME280;6789;47.678;9.158;2023-02-17T14:25:37;97795.94;;;14.22;61.70
13434;BME280;6789;47.678;9.158;2023-02-17T14:30:43;97793.81;;;14.30;61.88
13434;BME280;6789;47.678;9.158;2023-02-17T14:36:02;97794.75;;;14.18;62.49
13434;BME280;6789;47.678;9.158;2023-02-17T14:41:10;97798.06;;;14.13;62.33
13434;BME280;6789;47.678;9.158;2023-02-17T14:46:20;97806.69;;;14.20;62.51
13434;BME280;6789;47.678;9.158;2023-02-17T14:51:53;97803.50;;;13.94;62.79
13434;BME280;6789;47.678;9.158;2023-02-17T14:57:05;97802.34;;;13.90;63.40
13434;BME280;6789;47.678;9.158;2023-02-17T15:02:16;97808.41;;;13.90;63.58
13434;BME280;6789;47.678;9.158;2023-02-17T15:07:23;97802.06;;;13.98;63.65
13434;BME280;6789;47.678;9.158;2023-02-17T15:12:29;97808.63;;;13.89;63.67
13434;BME280;6789;47.678;9.158;2023-02-17T15:17:36;97803.22;;;13.84;64.36
13434;BME280;6789;47.678;9.158;2023-02-17T15:22:44;97806.22;;;13.87;65.37
13434;BME280;6789;47.678;9.158;2023-02-17T15:27:57;97814.41;;;13.79;66.07
13434;BME280;6789;47.678;9.158;2023-02-17T15:33:10;97813.63;;;13.97;65.71
13434;BME280;6789;47.678;9.158;2023-02-17T15:38:18;97805.13;;;13.95;65.53
13434;BME280;6789;47.678;9.158;2023-02-17T15:43:33;97809.38;;;13.96;65.60
13434;BME280;6789;47.678;9.158;2023-02-17T15:48:43;97800.13;;;14.05;65.63
13434;BME280;6789;47.678;9.158;2023-02-17T15:53:50;97804.91;;;13.96;66.24
13434;BME280;6789;47.678;9.158;2023-02-17T15:58:59;97797.03;;;13.72;67.87
13434;BME280;6789;47.678;9.158;2023-02-17T16:04:14;97797.03;;;13.72;69.38
13434;BME280;6789;47.678;9.158;2023-02-17T16:09:21;97797.03;;;13.72;70.39
13434;BME280;6789;47.678;9.158;2023-02-17T16:14:36;97798.78;;;13.60;72.40
13434;BME280;6789;47.678;9.158;2023-02-17T16:19:44;97795.41;;;13.53;72.90
13434;BME280;6789;47.678;9.158;2023-02-17T16:24:50;97786.84;;;13.33;74.52
13434;BME280;6789;47.678;9.158;2023-02-17T16:29:59;97789.59;;;13.20;74.88
13434;BME280;6789;47.678;9.158;2023-02-17T16:35:06;97794.31;;;13.12;76.72
13434;BME280;6789;47.678;9.158;2023-02-17T16:40:18;97797.81;;;12.99;77.21
13434;BME280;6789;47.678;9.158;2023-02-17T16:45:57;97801.16;;;12.88;78.28
13434;BME280;6789;47.678;9.158;2023-02-17T16:51:04;97806.81;;;12.85;78.63
13434;BME280;6789;47.678;9.158;2023-02-17T16:56:40;97815.56;;;12.73;79.37
13434;BME280;6789;47.678;9.158;2023-02-17T17:01:44;97820.28;;;12.65;80.32
13434;BME280;6789;47.678;9.158;2023-02-17T17:06:51;97826.44;;;12.46;81.81
13434;BME280;6789;47.678;9.158;2023-02-17T17:11:58;97827.31;;;12.27;83.46
13434;BME280;6789;47.678;9.158;2023-02-17T17:17:04;97835.44;;;12.19;83.94
13434;BME280;6789;47.678;9.158;2023-02-17T17:22:10;97837.13;;;12.01;85.87
13434;BME280;6789;47.678;9.158;2023-02-17T17:27:19;97841.97;;;11.97;85.61
13434;BME280;6789;47.678;9.158;2023-02-17T17:32:25;97834.91;;;11.91;86.34
13434;BME280;6789;47.678;9.158;2023-02-17T17:37:32;97835.13;;;11.83;87.28
13434;BME280;6789;47.678;9.158;2023-02-17T17:42:38;97835.75;;;11.72;88.38
13434;BME280;6789;47.678;9.158;2023-02-17T17:47:44;97844.66;;;11.65;87.81
13434;BME280;6789;47.678;9.158;2023-02-17T17:52:51;97837.56;;;11.72;86.98
13434;BME280;6789;47.678;9.158;2023-02-17T17:57:57;97845.41;;;11.39;87.61
13434;BME280;6789;47.678;9.158;2023-02-17T18:03:03;97851.28;;;11.29;88.32
13434;BME280;6789;47.678;9.158;2023-02-17T18:08:09;97857.94;;;11.44;87.49
13434;BME280;6789;47.678;9.158;2023-02-17T18:13:15;97862.41;;;11.50;87.46
13434;BME280;6789;47.678;9.158;2023-02-17T18:18:22;97863.78;;;11.39;87.86
13434;BME280;6789;47.678;9.158;2023-02-17T18:23:29;97865.22;;;11.48;88.83
13434;BME280;6789;47.678;9.158;2023-02-17T18:28:35;97848.84;;;11.27;90.23
13434;BME280;6789;47.678;9.158;2023-02-17T18:33:42;97852.69;;;11.12;90.67
13434;BME280;6789;47.678;9.158;2023-02-17T18:38:48;97860.16;;;11.28;90.52
13434;BME280;6789;47.678;9.158;2023-02-17T18:43:57;97862.16;;;11.00;92.36
13434;BME280;6789;47.678;9.158;2023-02-17T18:49:04;97870.38;;;10.84;93.12
13434;BME280;6789;47.678;9.158;2023-02-17T18:54:09;97867.13;;;10.75;94.04
13434;BME280;6789;47.678;9.158;2023-02-17T18:59:17;97858.03;;;10.71;94.55
13434;BME280;6789;47.678;9.158;2023-02-17T19:04:23;97851.16;;;10.77;93.19
13434;BME280;6789;47.678;9.158;2023-02-17T19:09:44;97860.66;;;10.78;91.57
13434;BME280;6789;47.678;9.158;2023-02-17T19:14:53;97852.41;;;10.87;88.45
13434;BME280;6789;47.678;9.158;2023-02-17T19:19:50;97847.59;;;11.04;86.50
13434;BME280;6789;47.678;9.158;2023-02-17T19:24:56;97864.41;;;11.22;85.00
13434;BME280;6789;47.678;9.158;2023-02-17T19:30:02;97871.88;;;11.25;84.40
13434;BME280;6789;47.678;9.158;2023-02-17T19:35:08;97872.28;;;11.48;82.01
13434;BME280;6789;47.678;9.158;2023-02-17T19:40:14;97872.72;;;11.51;81.61
13434;BME280;6789;47.678;9.158;2023-02-17T19:45:55;97868.44;;;11.50;81.53
13434;BME280;6789;47.678;9.158;2023-02-17T19:51:13;97870.72;;;11.66;80.49
13434;BME280;6789;47.678;9.158;2023-02-17T19:56:26;97869.50;;;11.69;80.25
13434;BME280;6789;47.678;9.158;2023-02-17T20:01:36;97883.44;;;11.82;80.37
13434;BME280;6789;47.678;9.158;2023-02-17T20:06:45;97885.88;;;11.64;81.46
13434;BME280;6789;47.678;9.158;2023-02-17T20:11:52;97898.19;;;11.64;81.90
13434;BME280;6789;47.678;9.158;2023-02-17T20:16:58;97894.56;;;11.52;82.57
13434;BME280;6789;47.678;9.158;2023-02-17T20:22:07;97898.94;;;11.38;84.08
13434;BME280;6789;47.678;9.158;2023-02-17T20:27:12;97896.88;;;11.15;85.40
13434;BME280;6789;47.678;9.158;2023-02-17T20:32:48;97896.50;;;11.18;85.99
13434;BME280;6789;47.678;9.158;2023-02-17T20:37:54;97893.06;;;11.11;86.23
13434;BME280;6789;47.678;9.158;2023-02-17T20:43:00;97903.72;;;10.96;86.42
13434;BME280;6789;47.678;9.158;2023-02-17T20:48:07;97909.97;;;11.02;86.29
13434;BME280;6789;47.678;9.158;2023-02-17T20:53:14;97900.09;;;10.97;85.78
13434;BME280;6789;47.678;9.158;2023-02-17T20:58:20;97906.56;;;11.08;84.61
13434;BME280;6789;47.678;9.158;2023-02-17T21:03:26;97913.16;;;10.84;85.33
13434;BME280;6789;47.678;9.158;2023-02-17T21:08:32;97914.34;;;10.75;85.67
13434;BME280;6789;47.678;9.158;2023-02-17T21:13:38;97921.34;;;10.62;86.64
13434;BME280;6789;47.678;9.158;2023-02-17T21:18:44;97921.88;;;10.51;87.17
13434;BME280;6789;47.678;9.158;2023-02-17T21:23:44;97931.16;;;10.47;88.08
13434;BME280;6789;47.678;9.158;2023-02-17T21:28:50;97916.47;;;10.59;87.56
13434;BME280;6789;47.678;9.158;2023-02-17T21:33:58;97922.44;;;10.40;88.42
13434;BME280;6789;47.678;9.158;2023-02-17T21:39:05;97919.38;;;10.30;89.38
13434;BME280;6789;47.678;9.158;2023-02-17T21:44:11;97923.06;;;10.42;89.12
13434;BME280;6789;47.678;9.158;2023-02-17T21:49:35;97921.88;;;10.51;88.90
13434;BME280;6789;47.678;9.158;2023-02-17T21:54:41;97932.06;;;10.33;89.46
13434;BME280;6789;47.678;9.158;2023-02-17T21:59:47;97933.28;;;10.31;90.40
13434;BME280;6789;47.678;9.158;2023-02-17T22:04:39;97927.44;;;10.29;90.22
13434;BME280;6789;47.678;9.158;2023-02-17T22:09:45;97933.63;;;10.21;90.53
13434;BME280;6789;47.678;9.158;2023-02-17T22:14:51;97940.63;;;10.14;91.52
13434;BME280;6789;47.678;9.158;2023-02-17T22:19:57;97941.22;;;10.10;92.29
13434;BME280;6789;47.678;9.158;2023-02-17T22:25:04;97944.44;;;10.12;93.11
13434;BME280;6789;47.678;9.158;2023-02-17T22:30:15;97950.50;;;10.12;93.18
13434;BME280;6789;47.678;9.158;2023-02-17T22:35:20;97944.88;;;10.15;93.75
13434;BME280;6789;47.678;9.158;2023-02-17T22:40:18;97942.47;;;10.20;93.70
13434;BME280;6789;47.678;9.158;2023-02-17T22:45:23;97929.66;;;10.32;93.62
13434;BME280;6789;47.678;9.158;2023-02-17T22:50:29;97947.88;;;10.40;94.21
13434;BME280;6789;47.678;9.158;2023-02-17T22:55:37;97939.16;;;10.39;94.02
13434;BME280;6789;47.678;9.158;2023-02-17T23:00:43;97932.31;;;10.38;94.15
13434;BME280;6789;47.678;9.158;2023-02-17T23:05:49;97932.72;;;10.42;94.12
13434;BME280;6789;47.678;9.158;2023-02-17T23:10:56;97938.38;;;10.39;95.20
13434;BME280;6789;47.678;9.158;2023-02-17T23:16:04;97933.16;;;10.45;98.28
13434;BME280;6789;47.678;9.158;2023-02-17T23:21:12;97931.28;;;10.79;100.00
13434;BME280;6789;47.678;9.158;2023-02-17T23:26:18;97936.63;;;11.05;100.00
13434;BME280;6789;47.678;9.158;2023-02-17T23:31:24;97930.81;;;11.16;100.00
13434;BME280;6789;47.678;9.158;2023-02-17T23:36:29;97937.13;;;11.35;100.00
13434;BME280;6789;47.678;9.158;2023-02-17T23:41:40;97927.41;;;11.35;100.00
13434;BME280;6789;47.678;9.158;2023-02-17T23:46:39;97927.03;;;11.32;100.00
13434;BME280;6789;47.678;9.158;2023-02-17T23:51:45;97930.28;;;11.46;100.00
13434;BME280;6789;47.678;9.158;2023-02-17T23:56:52;97923.59;;;11.50;100.00
